Inversion Research: Above Escarpment

*Note: All times are displayed in the local standard time of the station location.
**Rain - Equipment is designed to accurately record liquid precipitation; under conditions when precipitation is not in liquid form, the data displayed may not properly reflect rainfall values.

Date Max Temp
(°C)
Min Temp
(°C)
Avg Temp
(°C)
Rain (mm) Avg RH (%)
Sun, May 19, 2019 29.6 7.9 18.1 - 80.5
Sat, May 18, 2019 14.6 5.4 10.4 - 84.2
Fri, May 17, 2019 19.3 10.2 15.5 - 75.3
Thu, May 16, 2019 17.0 6.7 12.9 - 81.6
Wed, May 15, 2019 20.7 5.4 11.9 - 84.8
Tue, May 14, 2019 13.0 4.7 7.9 - 92.9
Mon, May 13, 2019 8.8 5.6 6.4 - 100.0
DateTime Avg Temp (°C) Rain (mm) RH (%)
Mon, May 20, 2019 13:00 18.8 - 64.3
Mon, May 20, 2019 12:00 17.6 - 69.5
Mon, May 20, 2019 11:00 17.6 - 73.4
Mon, May 20, 2019 10:00 17.8 - 80.2
Mon, May 20, 2019 09:00 16.2 - 93.2
Mon, May 20, 2019 08:00 15.2 - 99.1
Mon, May 20, 2019 07:00 14.4 - 100.0
Mon, May 20, 2019 06:00 14.7 - 100.0
Mon, May 20, 2019 05:00 15.7 - 99.9
Mon, May 20, 2019 04:00 16.2 - 97.7
Mon, May 20, 2019 03:00 16.2 - 97.8
Mon, May 20, 2019 02:00 15.3 - 100.0
Mon, May 20, 2019 01:00 14.1 - 100.0
Mon, May 20, 2019 00:00 13.5 - 100.0
Sun, May 19, 2019 23:00 16.1 - 99.9
Sun, May 19, 2019 22:00 17.0 - 95.6
Sun, May 19, 2019 21:00 19.2 - 90.8
Sun, May 19, 2019 20:00 22.1 - 76.5
Sun, May 19, 2019 19:00 26.3 - 56.2
Sun, May 19, 2019 18:00 27.6 - 53.4
Sun, May 19, 2019 17:00 29.0 - 51.4
Sun, May 19, 2019 16:00 29.4 - 57.6
Sun, May 19, 2019 15:00 28.7 - 61.8
Sun, May 19, 2019 14:00 27.4 - 65.1
Sun, May 19, 2019 13:00 26.8 - 66.7
Sun, May 19, 2019 12:00 23.0 - 67.7
Sun, May 19, 2019 11:00 21.3 - 71.4
Sun, May 19, 2019 10:00 21.2 - 80.1
Sun, May 19, 2019 09:00 16.8 - 84.3
Sun, May 19, 2019 08:00 11.0 - 87.2
Sun, May 19, 2019 07:00 8.7 - 94.9
Sun, May 19, 2019 06:00 8.9 - 96.6
Sun, May 19, 2019 05:00 8.6 - 95.9
Sun, May 19, 2019 04:00 8.2 - 95.4
Sun, May 19, 2019 03:00 8.0 - 94.9
Sun, May 19, 2019 02:00 8.1 - 95.0
Sun, May 19, 2019 01:00 9.0 - 93.8
Sun, May 19, 2019 00:00 9.4 - 89.6
Sat, May 18, 2019 23:00 9.8 - 87.7
Sat, May 18, 2019 22:00 10.2 - 85.6
Sat, May 18, 2019 21:00 11.9 - 76.4
Sat, May 18, 2019 20:00 12.9 - 71.9
Sat, May 18, 2019 19:00 13.1 - 71.9
Sat, May 18, 2019 18:00 12.8 - 71.7
Sat, May 18, 2019 17:00 14.1 - 70.0
Sat, May 18, 2019 16:00 13.8 - 74.4
Sat, May 18, 2019 15:00 12.3 - 78.7
Sat, May 18, 2019 14:00 11.7 - 80.7


asterix Register now to access more data! asterix